Airport View

Enter AWOS ICAO identifier for current METAR.

ex. KFNL

KAIG 051415Z AUTO 00000KT 10SM CLR 16/09 A3010 RMK AO2 T01640094

5 Aug 2020 14:17

Frequency: 119.075

Phone: 715-627-2869

Other Area AWOS: KRRL - KAUW - KEZS - KRHI

TAF KAUW 051137Z 0512/0612 32003KT P6SM SCT060 FM051400 25004KT P6SM FEW040 FM051900 24007KT P6SM SCT050 BKN100 FM060100 19003KT P6SM SCT100 FM060400 VRB03KT P6SM SCT200